createdAt,value
2023-04-26T00:00:19.664Z,97.33
2023-04-26T00:03:05.162Z,97.08
2023-04-26T00:05:50.737Z,97.15
2023-04-26T00:08:36.640Z,97.46
2023-04-26T00:11:23.016Z,97.67
2023-04-26T00:14:08.230Z,97.59
2023-04-26T00:16:53.343Z,97.91
2023-04-26T00:19:39.681Z,98.35
2023-04-26T00:22:25.586Z,98.31
2023-04-26T00:25:11.188Z,98.15
2023-04-26T00:27:56.827Z,98.46
2023-04-26T00:30:47.645Z,99.15
2023-04-26T00:33:32.743Z,99.17
2023-04-26T00:36:19.347Z,99.44
2023-04-26T00:39:04.624Z,99.15
2023-04-26T00:41:49.954Z,99.82
2023-04-26T00:44:34.964Z,99.95
2023-04-26T00:47:20.284Z,100.00
2023-04-26T00:50:07.367Z,100.00
2023-04-26T00:52:52.746Z,100.00
2023-04-26T00:55:38.095Z,100.00
2023-04-26T00:58:22.948Z,100.00
2023-04-26T01:01:08.460Z,100.00
2023-04-26T01:03:54.178Z,100.00
2023-04-26T01:06:40.172Z,100.00
2023-04-26T01:09:25.701Z,100.00
2023-04-26T01:12:11.480Z,100.00
2023-04-26T01:14:57.370Z,100.00
2023-04-26T01:17:45.943Z,100.00
2023-04-26T01:20:31.144Z,100.00
2023-04-26T01:23:16.968Z,100.00
2023-04-26T01:26:02.400Z,100.00
2023-04-26T01:28:49.605Z,100.00
2023-04-26T01:31:34.808Z,100.00
2023-04-26T01:34:20.082Z,100.00
2023-04-26T01:37:05.181Z,100.00
2023-04-26T01:39:50.357Z,100.00
2023-04-26T01:42:35.702Z,100.00
2023-04-26T01:45:20.541Z,100.00
2023-04-26T01:48:06.058Z,100.00
2023-04-26T01:50:51.304Z,100.00
2023-04-26T01:53:36.543Z,100.00
2023-04-26T01:56:24.409Z,100.00
2023-04-26T01:59:09.284Z,100.00
2023-04-26T02:01:54.324Z,100.00
2023-04-26T02:04:39.643Z,100.00
2023-04-26T02:07:24.901Z,100.00
2023-04-26T02:10:09.946Z,100.00
2023-04-26T02:12:55.242Z,100.00
2023-04-26T02:15:40.794Z,100.00
2023-04-26T02:18:26.785Z,100.00
2023-04-26T02:21:12.327Z,100.00
2023-04-26T02:23:57.525Z,100.00
2023-04-26T02:26:42.685Z,100.00
2023-04-26T02:29:42.128Z,100.00
2023-04-26T02:32:27.662Z,100.00
2023-04-26T02:35:12.781Z,100.00
2023-04-26T02:37:57.866Z,100.00
2023-04-26T02:40:42.856Z,100.00
2023-04-26T02:43:28.184Z,100.00
2023-04-26T02:46:16.746Z,100.00
2023-04-26T02:49:02.120Z,100.00
2023-04-26T02:51:47.070Z,100.00
2023-04-26T02:54:31.940Z,100.00
2023-04-26T02:57:16.923Z,100.00
2023-04-26T03:00:02.093Z,100.00
2023-04-26T03:02:47.500Z,100.00
2023-04-26T03:05:32.679Z,100.00
2023-04-26T03:08:17.836Z,100.00
2023-04-26T03:11:03.331Z,100.00
2023-04-26T03:13:48.346Z,100.00
2023-04-26T03:16:41.261Z,100.00
2023-04-26T03:19:29.902Z,100.00
2023-04-26T03:22:16.313Z,100.00
2023-04-26T03:25:01.426Z,100.00
2023-04-26T03:27:46.879Z,100.00
2023-04-26T03:30:32.126Z,100.00
2023-04-26T03:33:17.537Z,100.00
2023-04-26T03:36:02.823Z,100.00
2023-04-26T03:38:47.754Z,100.00
2023-04-26T03:41:33.584Z,100.00
2023-04-26T03:44:18.744Z,100.00
2023-04-26T03:47:05.232Z,100.00
2023-04-26T03:49:50.492Z,100.00
2023-04-26T03:52:35.865Z,100.00
2023-04-26T03:55:20.940Z,100.00
2023-04-26T03:58:07.993Z,100.00
2023-04-26T04:00:57.589Z,100.00
2023-04-26T04:03:43.171Z,100.00
2023-04-26T04:06:28.654Z,100.00
2023-04-26T04:09:13.644Z,100.00
2023-04-26T04:11:59.055Z,100.00
2023-04-26T04:14:43.904Z,100.00
2023-04-26T04:17:29.037Z,100.00
2023-04-26T04:20:14.118Z,100.00
2023-04-26T04:22:59.471Z,100.00
2023-04-26T04:25:45.525Z,100.00
2023-04-26T04:28:30.552Z,100.00
2023-04-26T04:31:15.819Z,100.00
2023-04-26T04:34:01.433Z,100.00
2023-04-26T04:36:46.340Z,100.00
2023-04-26T04:39:31.434Z,100.00
2023-04-26T04:42:16.614Z,100.00
2023-04-26T04:45:01.630Z,100.00
2023-04-26T04:47:46.611Z,100.00
2023-04-26T04:50:32.202Z,100.00
2023-04-26T04:53:17.449Z,100.00
2023-04-26T04:56:02.720Z,100.00
2023-04-26T04:58:47.771Z,100.00
2023-04-26T05:01:33.196Z,100.00
2023-04-26T05:04:18.652Z,100.00
2023-04-26T05:07:03.877Z,100.00
2023-04-26T05:09:49.065Z,100.00
2023-04-26T05:12:35.316Z,100.00
2023-04-26T05:15:20.491Z,100.00
2023-04-26T05:18:05.653Z,100.00
2023-04-26T05:20:51.018Z,100.00
2023-04-26T05:23:36.406Z,100.00
2023-04-26T05:26:21.687Z,100.00
2023-04-26T05:29:06.939Z,100.00
2023-04-26T05:31:51.993Z,100.00
2023-04-26T05:34:38.583Z,100.00
2023-04-26T05:37:23.523Z,100.00
2023-04-26T05:40:09.154Z,100.00
2023-04-26T05:42:54.255Z,100.00
2023-04-26T05:45:39.714Z,100.00
2023-04-26T05:48:25.331Z,100.00
2023-04-26T05:51:10.286Z,100.00
2023-04-26T05:53:55.757Z,100.00
2023-04-26T05:56:40.810Z,100.00
2023-04-26T05:59:25.996Z,100.00
2023-04-26T06:02:12.064Z,100.00
2023-04-26T06:04:57.544Z,100.00
2023-04-26T06:07:44.069Z,100.00
2023-04-26T06:10:29.326Z,100.00
2023-04-26T06:13:14.575Z,100.00
2023-04-26T06:15:59.864Z,100.00
2023-04-26T06:18:45.084Z,100.00
2023-04-26T06:21:30.103Z,100.00
2023-04-26T06:24:15.523Z,100.00
2023-04-26T06:27:00.496Z,100.00
2023-04-26T06:29:46.084Z,100.00
2023-04-26T06:32:31.243Z,100.00
2023-04-26T06:35:16.596Z,100.00
2023-04-26T06:38:02.160Z,100.00
2023-04-26T06:40:47.068Z,100.00
2023-04-26T06:43:32.083Z,100.00
2023-04-26T06:46:17.311Z,100.00
2023-04-26T06:49:02.418Z,100.00
2023-04-26T06:51:47.591Z,100.00
2023-04-26T06:54:34.623Z,100.00
2023-04-26T06:57:21.527Z,100.00
2023-04-26T07:00:07.568Z,100.00
2023-04-26T07:02:52.744Z,100.00
2023-04-26T07:05:39.584Z,100.00
2023-04-26T07:08:24.677Z,100.00
2023-04-26T07:11:11.400Z,100.00
2023-04-26T07:13:57.092Z,100.00
2023-04-26T07:16:44.726Z,100.00
2023-04-26T07:19:29.910Z,100.00
2023-04-26T07:22:14.887Z,100.00
2023-04-26T07:25:00.135Z,100.00
2023-04-26T07:27:45.924Z,100.00
2023-04-26T07:30:32.494Z,100.00
2023-04-26T07:33:17.775Z,100.00
2023-04-26T07:36:03.052Z,100.00
2023-04-26T07:38:48.149Z,100.00
2023-04-26T07:41:33.359Z,100.00
2023-04-26T07:44:18.505Z,100.00
2023-04-26T07:47:03.590Z,100.00
2023-04-26T07:49:53.223Z,100.00
2023-04-26T07:52:38.986Z,100.00
2023-04-26T07:55:24.765Z,100.00
2023-04-26T07:58:12.534Z,100.00
2023-04-26T08:00:57.506Z,100.00
2023-04-26T08:03:43.135Z,100.00
2023-04-26T08:06:29.294Z,100.00
2023-04-26T08:09:14.591Z,100.00
2023-04-26T08:12:00.224Z,100.00
2023-04-26T08:14:46.364Z,99.34
2023-04-26T08:17:32.253Z,98.96
2023-04-26T08:20:18.082Z,98.71
2023-04-26T08:23:03.150Z,98.36
2023-04-26T08:25:49.676Z,98.55
2023-04-26T08:28:35.778Z,97.46
2023-04-26T08:31:22.898Z,95.76
2023-04-26T08:34:11.421Z,93.45
2023-04-26T08:36:56.803Z,90.47
2023-04-26T08:39:41.961Z,88.48
2023-04-26T08:42:28.287Z,86.56
2023-04-26T08:45:16.299Z,83.55
2023-04-26T08:48:09.244Z,82.38
2023-04-26T08:50:55.502Z,81.59
2023-04-26T08:53:41.746Z,81.26
2023-04-26T08:56:28.347Z,81.25
2023-04-26T08:59:15.013Z,80.61
2023-04-26T09:02:03.201Z,79.73
2023-04-26T09:04:49.908Z,78.89
2023-04-26T09:07:44.379Z,78.13
2023-04-26T09:10:30.417Z,77.37
2023-04-26T09:13:15.598Z,75.46
2023-04-26T09:16:03.415Z,73.70
2023-04-26T09:18:57.131Z,73.12
2023-04-26T09:21:48.434Z,73.03
2023-04-26T09:24:52.060Z,70.43
2023-04-26T09:27:38.937Z,68.44
2023-04-26T09:30:24.422Z,67.41
2023-04-26T09:33:09.734Z,67.41
2023-04-26T09:35:54.787Z,66.69
2023-04-26T09:38:43.437Z,66.53
2023-04-26T09:41:47.196Z,65.05
2023-04-26T09:44:32.927Z,63.63
2023-04-26T09:47:18.205Z,63.43
2023-04-26T09:50:04.054Z,62.87
2023-04-26T09:52:48.955Z,62.46
2023-04-26T09:55:35.849Z,62.46
2023-04-26T09:58:22.240Z,62.48
2023-04-26T10:01:08.853Z,61.49
2023-04-26T10:03:56.899Z,60.65
2023-04-26T10:06:41.989Z,60.45
2023-04-26T10:09:27.539Z,58.66
2023-04-26T10:12:13.924Z,58.51
2023-04-26T10:14:58.936Z,58.39
2023-04-26T10:17:44.238Z,58.16
2023-04-26T10:20:29.830Z,57.07
2023-04-26T10:23:25.699Z,56.20
2023-04-26T10:26:52.814Z,56.71
2023-04-26T10:29:56.516Z,55.99
2023-04-26T10:32:57.209Z,55.54
2023-04-26T10:36:05.375Z,54.84
2023-04-26T10:39:23.332Z,53.58
2023-04-26T10:42:28.065Z,52.72
2023-04-26T10:45:27.924Z,52.68
2023-04-26T10:48:19.628Z,52.28
2023-04-26T10:51:05.468Z,51.55
2023-04-26T10:53:52.286Z,51.51
2023-04-26T10:56:37.805Z,50.97
2023-04-26T10:59:39.748Z,49.91
2023-04-26T11:02:52.403Z,50.43
2023-04-26T11:05:47.280Z,50.25
2023-04-26T11:08:32.747Z,49.40
2023-04-26T11:11:19.516Z,50.08
2023-04-26T11:14:05.691Z,50.17
2023-04-26T11:16:50.973Z,49.84
2023-04-26T11:19:36.248Z,49.41
2023-04-26T11:22:24.673Z,49.19
2023-04-26T11:25:13.207Z,49.34
2023-04-26T11:28:02.769Z,49.44
2023-04-26T11:30:49.991Z,49.51
2023-04-26T11:33:35.474Z,49.37
2023-04-26T11:36:22.691Z,48.98
2023-04-26T11:39:08.094Z,49.33
2023-04-26T11:42:05.528Z,49.65
2023-04-26T11:44:52.251Z,49.09
2023-04-26T11:47:38.232Z,47.98
2023-04-26T11:50:26.802Z,48.36
2023-04-26T11:53:12.544Z,48.41
2023-04-26T11:55:58.043Z,48.89
2023-04-26T11:58:51.689Z,49.29
2023-04-26T12:01:37.158Z,49.06
2023-04-26T12:04:30.851Z,49.36
2023-04-26T12:07:19.584Z,49.60
2023-04-26T12:10:19.251Z,49.60
2023-04-26T12:13:04.215Z,49.95
2023-04-26T12:15:51.281Z,50.02
2023-04-26T12:18:36.353Z,49.62
2023-04-26T12:21:21.924Z,49.93
2023-04-26T12:24:07.055Z,50.25
2023-04-26T12:26:52.502Z,50.56
2023-04-26T12:29:37.562Z,50.27
2023-04-26T12:32:22.887Z,50.27
2023-04-26T12:35:09.098Z,50.30
2023-04-26T12:37:56.852Z,49.99
2023-04-26T12:40:42.551Z,50.34
2023-04-26T12:43:27.678Z,50.16
2023-04-26T12:46:12.887Z,49.90
2023-04-26T12:48:58.176Z,50.34
2023-04-26T12:51:43.473Z,49.81
2023-04-26T12:54:28.497Z,49.19
2023-04-26T12:57:14.274Z,48.28
2023-04-26T12:59:59.415Z,49.13
2023-04-26T13:02:44.862Z,49.02
2023-04-26T13:05:30.591Z,49.83
2023-04-26T13:08:16.068Z,50.06
2023-04-26T13:11:01.714Z,49.52
2023-04-26T13:13:47.020Z,49.35
2023-04-26T13:16:33.277Z,49.35
2023-04-26T13:19:18.578Z,49.20
2023-04-26T13:22:04.798Z,49.47
2023-04-26T13:24:49.787Z,49.09
2023-04-26T13:27:34.914Z,48.83
2023-04-26T13:30:20.113Z,48.85
2023-04-26T13:33:05.490Z,48.62
2023-04-26T13:35:50.859Z,48.71
2023-04-26T13:38:36.144Z,48.59
2023-04-26T13:41:22.430Z,48.73
2023-04-26T13:44:07.615Z,48.93
2023-04-26T13:46:55.525Z,48.40
2023-04-26T13:49:41.723Z,48.60
2023-04-26T13:52:27.952Z,48.26
2023-04-26T13:55:14.320Z,47.75
2023-04-26T13:57:59.468Z,47.39
2023-04-26T14:00:44.613Z,46.39
2023-04-26T14:03:29.864Z,45.66
2023-04-26T14:06:15.420Z,45.32
2023-04-26T14:09:00.971Z,45.83
2023-04-26T14:11:49.446Z,46.04
2023-04-26T14:14:39.111Z,45.46
2023-04-26T14:17:25.258Z,44.97
2023-04-26T14:20:11.102Z,44.60
2023-04-26T14:22:56.258Z,44.82
2023-04-26T14:25:41.571Z,44.16
2023-04-26T14:28:26.659Z,43.36
2023-04-26T14:31:12.808Z,42.77
2023-04-26T14:33:57.798Z,42.48
2023-04-26T14:36:42.953Z,41.72
2023-04-26T14:39:28.039Z,41.64
2023-04-26T14:42:13.173Z,41.88
2023-04-26T14:45:01.202Z,42.56
2023-04-26T14:47:46.452Z,41.87
2023-04-26T14:50:31.313Z,42.16
2023-04-26T14:53:16.800Z,41.92
2023-04-26T14:56:02.133Z,41.77
2023-04-26T14:58:47.431Z,41.64
2023-04-26T15:01:32.694Z,42.81
2023-04-26T15:04:18.088Z,42.95
2023-04-26T15:07:04.325Z,43.48
2023-04-26T15:09:51.002Z,42.80
2023-04-26T15:12:36.506Z,43.83
2023-04-26T15:15:22.628Z,44.80
2023-04-26T15:18:07.868Z,45.09
2023-04-26T15:20:53.278Z,45.44
2023-04-26T15:23:38.481Z,45.73
2023-04-26T15:26:23.433Z,45.75
2023-04-26T15:29:08.401Z,46.11
2023-04-26T15:31:53.888Z,45.57
2023-04-26T15:34:40.774Z,45.33
2023-04-26T15:37:26.252Z,45.97
2023-04-26T15:40:12.124Z,46.11
2023-04-26T15:42:57.289Z,46.54
2023-04-26T15:45:42.470Z,46.93
2023-04-26T15:48:27.618Z,45.63
2023-04-26T15:51:12.813Z,44.76
2023-04-26T15:53:57.692Z,44.98
2023-04-26T15:56:44.302Z,45.65
2023-04-26T15:59:30.575Z,46.32
2023-04-26T16:02:16.099Z,46.52
2023-04-26T16:05:02.147Z,46.63
2023-04-26T16:07:47.426Z,46.93
2023-04-26T16:10:32.697Z,47.51
2023-04-26T16:13:18.330Z,47.93
2023-04-26T16:16:07.103Z,47.14
2023-04-26T16:18:52.235Z,47.38
2023-04-26T16:21:39.606Z,47.43
2023-04-26T16:24:24.887Z,48.56
2023-04-26T16:27:10.256Z,48.89
2023-04-26T16:29:55.596Z,48.47
2023-04-26T16:32:40.777Z,48.77
2023-04-26T16:35:25.824Z,49.19
2023-04-26T16:38:10.863Z,49.53
2023-04-26T16:41:01.328Z,49.33
2023-04-26T16:43:46.526Z,48.83
2023-04-26T16:46:32.359Z,48.47
2023-04-26T16:49:17.652Z,48.09
2023-04-26T16:52:03.805Z,48.19
2023-04-26T16:54:49.195Z,48.60
2023-04-26T16:57:34.649Z,49.09
2023-04-26T17:00:20.055Z,48.71
2023-04-26T17:03:06.406Z,48.93
2023-04-26T17:05:51.615Z,49.12
2023-04-26T17:08:36.855Z,48.88
2023-04-26T17:11:22.144Z,49.17
2023-04-26T17:14:07.361Z,49.54
2023-04-26T17:16:52.320Z,49.63
2023-04-26T17:19:37.477Z,49.49
2023-04-26T17:22:22.337Z,50.01
2023-04-26T17:25:08.791Z,49.85
2023-04-26T17:27:54.109Z,50.33
2023-04-26T17:30:39.091Z,50.13
2023-04-26T17:33:25.398Z,49.77
2023-04-26T17:36:10.714Z,49.78
2023-04-26T17:38:56.061Z,50.12
2023-04-26T17:41:41.063Z,49.92
2023-04-26T17:44:26.163Z,50.25
2023-04-26T17:47:11.265Z,50.07
2023-04-26T17:49:56.148Z,50.08
2023-04-26T17:52:41.815Z,50.60
2023-04-26T17:55:27.137Z,50.69
2023-04-26T17:58:12.470Z,50.64
2023-04-26T18:00:57.479Z,50.62
2023-04-26T18:03:42.646Z,50.64
2023-04-26T18:06:28.188Z,50.79
2023-04-26T18:09:13.337Z,50.69
2023-04-26T18:11:58.735Z,50.77
2023-04-26T18:14:47.064Z,50.86
2023-04-26T18:17:32.213Z,50.94
2023-04-26T18:20:17.312Z,51.33
2023-04-26T18:23:02.793Z,51.37
2023-04-26T18:25:47.847Z,52.27
2023-04-26T18:28:32.821Z,52.66
2023-04-26T18:31:18.078Z,53.26
2023-04-26T18:34:03.386Z,53.04
2023-04-26T18:36:48.570Z,53.10
2023-04-26T18:39:33.542Z,53.03
2023-04-26T18:42:18.755Z,53.23
2023-04-26T18:45:05.093Z,53.51
2023-04-26T18:47:50.330Z,53.52
2023-04-26T18:50:36.004Z,53.50
2023-04-26T18:53:24.244Z,53.77
2023-04-26T18:56:09.191Z,53.54
2023-04-26T18:58:54.220Z,53.50
2023-04-26T19:01:39.556Z,53.84
2023-04-26T19:04:24.922Z,53.70
2023-04-26T19:07:10.080Z,54.17
2023-04-26T19:10:00.819Z,54.38
2023-04-26T19:12:46.248Z,54.52
2023-04-26T19:15:31.357Z,54.83
2023-04-26T19:18:17.855Z,54.93
2023-04-26T19:21:04.664Z,54.84
2023-04-26T19:23:50.057Z,55.14
2023-04-26T19:26:37.224Z,55.31
2023-04-26T19:29:22.298Z,55.70
2023-04-26T19:32:07.819Z,56.02
2023-04-26T19:34:53.055Z,56.39
2023-04-26T19:37:38.043Z,56.72
2023-04-26T19:40:22.976Z,56.90
2023-04-26T19:43:08.113Z,57.50
2023-04-26T19:45:53.255Z,57.96
2023-04-26T19:48:38.489Z,58.27
2023-04-26T19:51:23.631Z,58.66
2023-04-26T19:54:08.670Z,58.86
2023-04-26T19:56:53.810Z,59.59
2023-04-26T19:59:38.890Z,60.06
2023-04-26T20:02:24.017Z,60.34
2023-04-26T20:05:09.416Z,60.57
2023-04-26T20:07:54.741Z,61.19
2023-04-26T20:10:41.582Z,61.97
2023-04-26T20:13:26.984Z,62.30
2023-04-26T20:16:12.823Z,62.75
2023-04-26T20:18:58.049Z,63.01
2023-04-26T20:21:43.170Z,63.47
2023-04-26T20:24:28.196Z,63.55
2023-04-26T20:27:13.353Z,64.09
2023-04-26T20:29:58.477Z,64.25
2023-04-26T20:32:44.167Z,64.06
2023-04-26T20:35:29.573Z,64.16
2023-04-26T20:38:14.454Z,64.51
2023-04-26T20:41:00.605Z,65.03
2023-04-26T20:43:45.788Z,64.98
2023-04-26T20:46:32.180Z,65.37
2023-04-26T20:49:17.650Z,65.72
2023-04-26T20:52:02.747Z,65.85
2023-04-26T20:54:47.878Z,66.34
2023-04-26T20:57:32.913Z,66.78
2023-04-26T21:00:18.424Z,67.15
2023-04-26T21:03:04.235Z,67.64
2023-04-26T21:05:50.063Z,68.16
2023-04-26T21:08:36.744Z,68.27
2023-04-26T21:11:22.185Z,68.84
2023-04-26T21:14:07.126Z,68.96
2023-04-26T21:16:52.222Z,69.13
2023-04-26T21:19:37.307Z,69.40
2023-04-26T21:22:22.693Z,69.40
2023-04-26T21:25:08.304Z,69.46
2023-04-26T21:27:53.541Z,69.66
2023-04-26T21:30:38.713Z,69.89
2023-04-26T21:33:23.700Z,69.46
2023-04-26T21:36:09.175Z,69.74
2023-04-26T21:38:54.394Z,69.29
2023-04-26T21:41:40.345Z,69.20
2023-04-26T21:44:25.704Z,69.43
2023-04-26T21:47:10.969Z,69.44
2023-04-26T21:49:56.145Z,69.67
2023-04-26T21:52:41.362Z,70.08
2023-04-26T21:55:26.911Z,70.06
2023-04-26T21:58:12.068Z,70.34
2023-04-26T22:01:10.405Z,71.28
2023-04-26T22:03:55.368Z,71.33
2023-04-26T22:06:40.626Z,71.74
2023-04-26T22:09:25.635Z,71.51
2023-04-26T22:12:11.148Z,71.84
2023-04-26T22:14:56.477Z,72.07
2023-04-26T22:17:41.669Z,71.87
2023-04-26T22:20:26.805Z,72.71
2023-04-26T22:23:12.022Z,72.90
2023-04-26T22:25:59.516Z,73.22
2023-04-26T22:28:44.808Z,73.43
2023-04-26T22:31:29.814Z,74.10
2023-04-26T22:34:14.780Z,74.18
2023-04-26T22:37:13.152Z,74.54
2023-04-26T22:40:05.685Z,74.85
2023-04-26T22:42:51.223Z,75.22
2023-04-26T22:45:36.462Z,75.62
2023-04-26T22:48:21.645Z,76.33
2023-04-26T22:51:06.998Z,76.92
2023-04-26T22:53:52.024Z,76.89
2023-04-26T22:56:37.408Z,77.22
2023-04-26T22:59:22.370Z,77.50
2023-04-26T23:02:07.557Z,78.05
2023-04-26T23:04:52.995Z,77.86
2023-04-26T23:07:39.561Z,78.39
2023-04-26T23:10:24.955Z,78.65
2023-04-26T23:13:09.994Z,79.16
2023-04-26T23:15:54.960Z,79.66
2023-04-26T23:18:41.983Z,80.47
2023-04-26T23:21:28.144Z,81.09
2023-04-26T23:24:13.116Z,80.85
2023-04-26T23:26:57.994Z,81.62
2023-04-26T23:29:43.284Z,82.03
2023-04-26T23:32:28.476Z,82.63
2023-04-26T23:35:13.877Z,82.96
2023-04-26T23:37:59.203Z,83.20
2023-04-26T23:40:44.669Z,83.84
2023-04-26T23:43:30.121Z,84.02
2023-04-26T23:46:14.976Z,84.36
2023-04-26T23:49:00.394Z,84.65
2023-04-26T23:51:45.647Z,85.32
2023-04-26T23:54:31.301Z,86.01
2023-04-26T23:57:16.642Z,86.21
